Time;durP1;ratioP1;P1;durP2;ratioP2;P2;SDS_P1;SDS_P2;PMS_P1;PMS_P2;Temp;Humidity;BMP_temperature;BMP_pressure;BME280_temperature;BME280_humidity;BME280_pressure;Samples;Min_cycle;Max_cycle;Signal;HPM_P1;HPM_P2
2023/12/16 00:00:43;;;;;;;4.88;4.57;;;;;;;6.66;100.00;102993.94;6054019;23;20051;-68
2023/12/16 00:03:12;;;;;;;5.85;5.45;;;;;;;6.62;100.00;102951.31;6074718;23;20093;-68
2023/12/16 00:05:39;;;;;;;4.93;4.63;;;;;;;6.66;100.00;102952.19;6053540;23;20377;-68
2023/12/16 00:08:06;;;;;;;5.40;4.88;;;;;;;6.37;100.00;102893.03;6068326;23;20086;-68
2023/12/16 00:10:32;;;;;;;5.28;4.88;;;;;;;6.58;100.00;102933.91;6052605;23;20113;-72
2023/12/16 00:12:59;;;;;;;4.30;4.10;;;;;;;6.64;100.00;102927.84;6084656;23;20642;-69
2023/12/16 00:15:26;;;;;;;5.40;4.20;;;;;;;6.65;100.00;102929.56;6053598;23;20022;-68
2023/12/16 00:17:52;;;;;;;5.95;4.63;;;;;;;6.13;100.00;102832.19;6085297;23;20026;-68
2023/12/16 00:20:19;;;;;;;7.55;6.88;;;;;;;6.77;100.00;102919.97;6050053;23;20051;-68
2023/12/16 00:22:45;;;;;;;6.95;4.68;;;;;;;6.76;100.00;102886.06;6085178;23;20061;-68
2023/12/16 00:25:12;;;;;;;5.38;5.00;;;;;;;6.74;100.00;102880.84;6053185;23;20058;-68
2023/12/16 00:27:38;;;;;;;5.65;5.05;;;;;;;6.55;100.00;102829.56;6055270;23;20022;-69
2023/12/16 00:30:06;;;;;;;4.50;4.22;;;;;;;6.96;100.00;102845.16;6053377;23;20022;-68
2023/12/16 00:32:33;;;;;;;4.20;3.95;;;;;;;7.01;100.00;102782.47;6079685;23;20014;-68
2023/12/16 00:35:00;;;;;;;5.18;4.88;;;;;;;6.86;100.00;102740.78;6053488;23;20105;-70
2023/12/16 00:37:26;;;;;;;4.15;3.85;;;;;;;6.98;100.00;102762.47;6079005;23;20409;-68
2023/12/16 00:39:52;;;;;;;4.63;4.43;;;;;;;6.99;100.00;102765.94;6052296;23;20498;-69
2023/12/16 00:42:19;;;;;;;6.15;5.80;;;;;;;6.87;100.00;102751.19;6077706;23;20489;-69
2023/12/16 00:44:45;;;;;;;5.13;4.72;;;;;;;6.67;100.00;102735.59;6047628;23;20022;-69
2023/12/16 00:47:12;;;;;;;5.57;4.65;;;;;;;6.43;100.00;102696.56;6079696;23;20213;-69
2023/12/16 00:49:38;;;;;;;5.10;4.53;;;;;;;6.85;100.00;102773.81;6051851;23;20018;-69
2023/12/16 00:52:05;;;;;;;4.00;3.80;;;;;;;6.76;100.00;102782.56;6075501;23;20014;-70
2023/12/16 00:54:31;;;;;;;15.07;4.40;;;;;;;6.45;100.00;102771.31;6049509;23;20146;-68
2023/12/16 00:56:58;;;;;;;5.07;4.78;;;;;;;6.63;100.00;102822.56;6053936;23;20492;-68
2023/12/16 00:59:26;;;;;;;4.40;4.10;;;;;;;6.62;100.00;102833.03;6028897;23;20050;-69
2023/12/16 01:01:52;;;;;;;8.82;4.30;;;;;;;6.49;100.00;102819.13;6075843;23;20036;-69
2023/12/16 01:04:19;;;;;;;5.97;5.57;;;;;;;6.65;100.00;102853.91;6048820;23;20073;-69
2023/12/16 01:06:45;;;;;;;4.93;4.63;;;;;;;6.58;100.00;102850.44;6083417;23;20568;-69
2023/12/16 01:09:12;;;;;;;5.18;4.70;;;;;;;6.17;100.00;102780.91;6050439;23;20481;-68
2023/12/16 01:11:40;;;;;;;4.60;4.30;;;;;;;6.63;100.00;102853.88;6081983;23;20030;-69
2023/12/16 01:14:06;;;;;;;7.93;5.07;;;;;;;5.96;100.00;102738.34;6053562;23;20252;-69
2023/12/16 01:16:33;;;;;;;11.05;4.30;;;;;;;6.63;100.00;102866.06;6079070;23;20027;-69
2023/12/16 01:18:59;;;;;;;4.95;4.55;;;;;;;6.56;100.00;102879.13;6058282;23;20371;-69
2023/12/16 01:21:26;;;;;;;4.93;4.55;;;;;;;6.52;100.00;102893.03;6077764;23;20030;-69
2023/12/16 01:23:53;;;;;;;12.70;5.45;;;;;;;6.51;100.00;102921.72;6051113;23;20527;-69
2023/12/16 01:26:20;;;;;;;7.13;6.65;;;;;;;6.03;100.00;102860.84;6070318;23;20631;-69
2023/12/16 01:28:46;;;;;;;8.23;5.03;;;;;;;6.48;100.00;102955.66;6057249;23;20018;-69
2023/12/16 01:31:13;;;;;;;4.80;4.50;;;;;;;6.41;100.00;102969.53;6080805;23;20409;-69
2023/12/16 01:33:39;;;;;;;5.97;5.10;;;;;;;6.46;100.00;102979.13;6049690;23;20022;-69
2023/12/16 01:36:06;;;;;;;4.25;4.05;;;;;;;6.45;100.00;102990.41;6081482;23;20622;-69
2023/12/16 01:38:33;;;;;;;6.45;5.97;;;;;;;6.43;100.00;102996.50;6052183;23;20026;-68
2023/12/16 01:40:59;;;;;;;5.50;4.68;;;;;;;6.08;100.00;102947.75;6080109;23;20022;-70
2023/12/16 01:43:26;;;;;;;4.03;3.83;;;;;;;6.53;100.00;103013.91;6031961;23;20515;-68
2023/12/16 01:46:01;;;;;;;4.50;4.30;;;;;;;6.58;100.00;103028.69;6078956;23;20033;-68
2023/12/16 01:48:29;;;;;;;4.38;4.15;;;;;;;5.91;100.00;102930.28;6048062;23;20066;-68
2023/12/16 01:50:56;;;;;;;4.07;3.88;;;;;;;6.54;100.00;103026.09;6076801;23;20010;-68
2023/12/16 01:53:24;;;;;;;4.57;4.28;;;;;;;6.35;100.00;102971.28;6051657;23;20014;-71
2023/12/16 01:55:50;;;;;;;5.55;4.97;;;;;;;6.48;100.00;102981.72;6081264;23;20026;-68
2023/12/16 01:58:17;;;;;;;6.60;6.10;;;;;;;6.43;100.00;102970.41;6046475;23;20660;-69
2023/12/16 02:00:45;;;;;;;5.13;4.72;;;;;;;6.34;100.00;102964.31;6084346;23;20083;-68
2023/12/16 02:03:14;;;;;;;13.57;4.88;;;;;;;6.51;100.00;102994.75;6046951;23;20559;-68
2023/12/16 02:05:41;;;;;;;4.43;4.10;;;;;;;6.51;100.00;102994.75;6084547;23;20025;-68
2023/12/16 02:08:08;;;;;;;5.30;4.95;;;;;;;6.30;100.00;102973.00;6051014;23;20022;-69
2023/12/16 02:10:34;;;;;;;5.35;4.85;;;;;;;6.38;100.00;102989.53;6074758;23;20030;-69
2023/12/16 02:13:02;;;;;;;10.68;4.15;;;;;;;5.60;100.00;102859.81;6054576;23;20022;-69
2023/12/16 02:15:28;;;;;;;4.57;4.35;;;;;;;6.47;100.00;103006.06;6078491;23;20073;-68
2023/12/16 02:17:55;;;;;;;22.00;5.13;;;;;;;6.46;100.00;103012.16;6056591;23;20154;-71
2023/12/16 02:20:22;;;;;;;6.93;6.30;;;;;;;6.50;100.00;103021.75;6074663;23;20315;-68
2023/12/16 02:22:48;;;;;;;4.57;4.32;;;;;;;5.72;100.00;102892.88;6054593;23;20033;-68
2023/12/16 02:25:15;;;;;;;4.45;4.15;;;;;;;6.04;100.00;102951.22;6085191;23;20048;-68
2023/12/16 02:27:42;;;;;;;4.75;4.45;;;;;;;6.18;100.00;102986.00;6050099;23;20111;-68
2023/12/16 02:30:09;;;;;;;6.47;6.13;;;;;;;6.42;100.00;103023.47;6074761;23;20486;-69
2023/12/16 02:32:35;;;;;;;5.35;4.90;;;;;;;5.92;100.00;102936.38;6047661;23;20018;-68
2023/12/16 02:35:02;;;;;;;4.22;3.97;;;;;;;6.25;100.00;103006.00;6050986;23;20026;-69
2023/12/16 02:37:29;;;;;;;13.68;4.60;;;;;;;6.54;100.00;103023.47;6079533;23;20042;-69
2023/12/16 02:39:55;;;;;;;4.13;3.92;;;;;;;6.49;100.00;102999.09;6051852;23;20030;-70
2023/12/16 02:42:22;;;;;;;6.00;5.50;;;;;;;6.43;100.00;102965.19;6077590;23;20006;-69
2023/12/16 02:44:48;;;;;;;4.97;4.57;;;;;;;6.46;100.00;102965.22;6050466;23;20050;-69
2023/12/16 02:47:15;;;;;;;4.93;4.53;;;;;;;6.42;100.00;102943.47;6082748;23;20021;-69
2023/12/16 02:49:41;;;;;;;4.65;4.35;;;;;;;6.43;100.00;102929.53;6030794;23;20038;-69
2023/12/16 02:52:08;;;;;;;4.88;4.65;;;;;;;6.38;100.00;102924.31;6076280;23;20083;-69
2023/12/16 02:54:34;;;;;;;20.10;6.43;;;;;;;6.34;100.00;102913.91;6055352;23;20086;-70
2023/12/16 02:57:00;;;;;;;5.85;4.93;;;;;;;5.77;100.00;102812.09;6075718;23;20190;-71
2023/12/16 02:59:29;;;;;;;5.30;5.00;;;;;;;6.34;100.00;102903.47;6052988;23;20149;-69
2023/12/16 03:01:56;;;;;;;8.30;7.07;;;;;;;6.30;100.00;102905.19;6081260;23;20048;-68
2023/12/16 03:04:22;;;;;;;6.03;5.55;;;;;;;6.30;100.00;102899.13;6048984;23;20026;-69
2023/12/16 03:06:50;;;;;;;4.60;4.30;;;;;;;5.83;100.00;102812.09;6078827;23;20021;-68
2023/12/16 03:09:16;;;;;;;4.72;4.43;;;;;;;6.32;100.00;102879.13;6051652;23;20038;-70
2023/12/16 03:11:43;;;;;;;6.63;4.32;;;;;;;6.25;100.00;102886.06;6082530;23;20038;-69
2023/12/16 03:14:09;;;;;;;6.20;5.80;;;;;;;6.23;100.00;102860.84;6044931;23;20590;-68
2023/12/16 03:16:36;;;;;;;5.55;5.18;;;;;;;5.76;100.00;102789.53;6076135;23;20213;-68
2023/12/16 03:19:02;;;;;;;20.38;4.55;;;;;;;5.83;100.00;102775.63;6045013;23;20466;-70
2023/12/16 03:21:30;;;;;;;4.53;4.22;;;;;;;5.67;100.00;102747.84;6054028;23;20021;-69
2023/12/16 03:23:56;;;;;;;5.85;4.35;;;;;;;6.28;100.00;102838.28;6050704;23;20243;-69
2023/12/16 03:26:22;;;;;;;5.93;5.60;;;;;;;6.31;100.00;102827.81;6066330;23;20444;-68
2023/12/16 03:28:49;;;;;;;9.27;4.45;;;;;;;6.32;100.00;102813.94;6055783;23;20038;-68
2023/12/16 03:31:16;;;;;;;5.60;5.30;;;;;;;6.34;100.00;102807.84;6081016;23;20548;-68
2023/12/16 03:33:42;;;;;;;4.95;4.65;;;;;;;6.35;100.00;102788.72;6048996;23;20044;-68
2023/12/16 03:36:09;;;;;;;7.45;4.93;;;;;;;6.29;100.00;102780.03;6084409;23;20032;-69
2023/12/16 03:38:35;;;;;;;4.72;4.43;;;;;;;6.36;100.00;102766.13;6056196;23;20154;-71
2023/12/16 03:41:04;;;;;;;9.48;6.15;;;;;;;6.37;100.00;102747.88;6094656;23;20021;-69
2023/12/16 03:43:30;;;;;;;5.18;4.65;;;;;;;6.38;100.00;102727.88;6057415;23;20038;-69
2023/12/16 03:45:57;;;;;;;3.72;3.53;;;;;;;6.35;100.00;102712.22;6075680;23;20087;-68
2023/12/16 03:48:24;;;;;;;4.88;4.68;;;;;;;6.32;100.00;102705.28;6051976;23;20024;-69
2023/12/16 03:50:50;;;;;;;13.75;4.75;;;;;;;6.22;100.00;102674.03;6075676;23;20422;-70
2023/12/16 03:53:17;;;;;;;4.00;3.80;;;;;;;5.81;100.00;102589.78;6051720;23;20071;-70
2023/12/16 03:55:43;;;;;;;4.43;4.15;;;;;;;6.45;100.00;102671.34;6080378;23;20355;-70
2023/12/16 03:58:09;;;;;;;4.85;4.60;;;;;;;6.44;100.00;102664.41;6043394;23;20030;-70
2023/12/16 04:00:36;;;;;;;4.78;4.07;;;;;;;6.42;100.00;102640.06;6060740;23;20033;-70
2023/12/16 04:03:03;;;;;;;4.68;4.38;;;;;;;6.42;100.00;102627.03;6048905;23;20054;-68
2023/12/16 04:05:29;;;;;;;5.78;4.15;;;;;;;6.40;100.00;102632.25;6080318;23;20028;-68
2023/12/16 04:07:56;;;;;;;7.63;4.80;;;;;;;6.39;100.00;102625.28;6050929;23;20034;-69
2023/12/16 04:10:22;;;;;;;6.25;5.75;;;;;;;5.89;100.00;102550.69;6074495;23;20034;-69
2023/12/16 04:12:51;;;;;;;5.30;4.97;;;;;;;6.38;100.00;102632.25;6052469;23;20023;-68
2023/12/16 04:15:17;;;;;;;5.75;4.07;;;;;;;6.16;100.00;102607.13;6074057;23;20030;-68
2023/12/16 04:17:44;;;;;;;4.47;4.20;;;;;;;6.36;100.00;102654.00;6054986;23;20413;-68
2023/12/16 04:20:10;;;;;;;7.18;6.13;;;;;;;5.85;100.00;102548.94;6081050;23;20087;-68
2023/12/16 04:22:37;;;;;;;4.43;4.13;;;;;;;6.22;100.00;102608.84;6022286;23;20492;-68
2023/12/16 04:25:10;;;;;;;4.88;4.55;;;;;;;5.98;100.00;102566.34;6074751;23;20358;-68
2023/12/16 04:27:37;;;;;;;4.50;4.30;;;;;;;5.40;100.00;102507.38;6046081;23;20022;-72
2023/12/16 04:30:05;;;;;;;7.32;3.97;;;;;;;6.09;100.00;102610.59;6077357;23;20030;-67
2023/12/16 04:32:31;;;;;;;3.85;3.65;;;;;;;6.42;100.00;102653.97;6037612;23;20030;-71
2023/12/16 04:35:01;;;;;;;4.22;3.92;;;;;;;6.03;100.00;102594.97;6076742;23;20030;-68
2023/12/16 04:37:27;;;;;;;5.80;4.30;;;;;;;5.38;100.00;102496.09;6052776;23;20100;-70
2023/12/16 04:39:54;;;;;;;4.97;4.55;;;;;;;6.37;100.00;102669.63;6070438;23;20030;-69
2023/12/16 04:42:20;;;;;;;11.57;5.38;;;;;;;6.39;100.00;102688.75;6051982;23;20041;-70
2023/12/16 04:44:47;;;;;;;5.00;4.70;;;;;;;6.31;100.00;102692.22;6074208;23;20051;-70
2023/12/16 04:47:13;;;;;;;3.88;3.67;;;;;;;6.36;100.00;102714.81;6026999;23;20025;-71
2023/12/16 04:49:40;;;;;;;7.70;4.25;;;;;;;5.62;100.00;102603.72;6080892;23;20022;-70
2023/12/16 04:52:06;;;;;;;4.07;3.88;;;;;;;5.72;100.00;102642.78;6045306;23;20029;-70
2023/12/16 04:54:33;;;;;;;13.48;4.65;;;;;;;6.31;100.00;102757.41;6078400;23;20029;-68
2023/12/16 04:56:59;;;;;;;5.10;4.68;;;;;;;5.78;100.00;102694.00;6050885;23;20029;-71
2023/12/16 04:59:26;;;;;;;4.50;4.13;;;;;;;6.25;100.00;102780.91;6086211;23;20608;-70
2023/12/16 05:01:52;;;;;;;4.68;4.38;;;;;;;6.25;100.00;102806.97;6051600;23;20026;-71
2023/12/16 05:04:19;;;;;;;6.10;5.72;;;;;;;6.24;100.00;102821.75;6075230;23;20028;-70
2023/12/16 05:06:45;;;;;;;5.32;4.93;;;;;;;5.31;100.00;102674.00;6054113;23;20029;-71
2023/12/16 05:09:12;;;;;;;5.13;4.72;;;;;;;6.25;100.00;102849.56;6079779;23;20524;-71
2023/12/16 05:11:38;;;;;;;5.50;5.10;;;;;;;5.85;100.00;102786.06;6052950;23;20441;-69
2023/12/16 05:14:10;;;;;;;5.18;4.90;;;;;;;6.27;100.00;102854.78;6074850;23;20095;-69
2023/12/16 05:16:41;;;;;;;6.10;4.57;;;;;;;6.35;100.00;102859.16;5961489;23;20049;-69
2023/12/16 05:19:07;;;;;;;5.20;4.80;;;;;;;6.31;100.00;102841.72;6082910;23;20032;-70
2023/12/16 05:21:34;;;;;;;4.80;4.50;;;;;;;6.29;100.00;102834.78;6050508;23;20022;-70
2023/12/16 05:24:00;;;;;;;3.90;3.70;;;;;;;6.32;100.00;102840.00;6083738;23;20021;-71
2023/12/16 05:26:27;;;;;;;5.53;4.68;;;;;;;6.29;100.00;102832.19;6049575;23;20100;-70
2023/12/16 05:28:53;;;;;;;5.68;4.20;;;;;;;6.12;100.00;102814.78;6073939;23;20051;-70
2023/12/16 05:31:20;;;;;;;9.85;4.38;;;;;;;6.29;100.00;102827.81;6049542;23;20406;-67
2023/12/16 05:33:46;;;;;;;4.65;4.35;;;;;;;5.97;100.00;102773.97;6080251;23;20022;-71
2023/12/16 05:36:13;;;;;;;5.63;5.32;;;;;;;6.26;100.00;102820.00;6054848;23;20029;-69
2023/12/16 05:38:40;;;;;;;4.80;4.50;;;;;;;6.02;100.00;102770.50;6049696;23;20042;-70
2023/12/16 05:41:06;;;;;;;4.03;3.83;;;;;;;6.34;100.00;102820.88;6054085;23;20642;-70
2023/12/16 05:43:32;;;;;;;4.70;4.30;;;;;;;6.08;100.00;102778.31;6084867;23;20094;-72
2023/12/16 05:45:59;;;;;;;4.97;4.57;;;;;;;6.28;100.00;102813.06;6051194;23;20022;-68
2023/12/16 05:48:26;;;;;;;5.22;4.80;;;;;;;6.37;100.00;102817.38;6072935;23;20511;-69
2023/12/16 05:50:52;;;;;;;4.63;3.90;;;;;;;5.87;100.00;102740.88;6043319;23;20085;-68
2023/12/16 05:53:19;;;;;;;8.77;4.43;;;;;;;6.42;100.00;102825.22;6078958;23;20042;-68
2023/12/16 05:55:47;;;;;;;6.22;4.45;;;;;;;6.43;100.00;102811.31;6051776;23;20547;-69
2023/12/16 05:58:14;;;;;;;5.25;4.88;;;;;;;6.42;100.00;102804.38;6075098;23;20034;-68
2023/12/16 06:00:42;;;;;;;5.10;4.57;;;;;;;6.39;100.00;102793.06;6053400;23;20029;-69
2023/12/16 06:03:09;;;;;;;4.80;4.35;;;;;;;6.37;100.00;102802.63;6077358;23;20516;-69
2023/12/16 06:05:35;;;;;;;4.32;4.13;;;;;;;6.38;100.00;102796.53;6052596;23;20168;-69
2023/12/16 06:08:02;;;;;;;4.18;3.97;;;;;;;6.37;100.00;102800.03;6079618;23;20025;-70
2023/12/16 06:10:28;;;;;;;7.00;4.90;;;;;;;6.41;100.00;102815.66;6054321;23;20085;-70
2023/12/16 06:12:55;;;;;;;8.73;4.35;;;;;;;6.39;100.00;102813.03;6080724;23;20266;-70
2023/12/16 06:15:21;;;;;;;6.50;4.35;;;;;;;6.38;100.00;102820.00;6050517;23;20037;-70
2023/12/16 06:17:48;;;;;;;4.90;4.18;;;;;;;6.36;100.00;102808.72;6081186;23;20026;-70
2023/12/16 06:20:14;;;;;;;6.78;5.70;;;;;;;6.40;100.00;102817.41;6051419;23;20018;-70
2023/12/16 06:22:41;;;;;;;4.53;4.22;;;;;;;6.23;100.00;102791.31;6056716;23;20021;-69
2023/12/16 06:25:08;;;;;;;14.43;4.47;;;;;;;6.39;100.00;102808.72;6051439;23;20523;-69
2023/12/16 06:27:34;;;;;;;5.68;4.78;;;;;;;6.38;100.00;102813.94;6071785;23;20045;-70
2023/12/16 06:30:01;;;;;;;4.05;3.85;;;;;;;6.42;100.00;102830.44;6050873;23;20038;-70
2023/12/16 06:32:27;;;;;;;7.13;4.13;;;;;;;6.10;100.00;102769.59;6074852;23;20037;-69
2023/12/16 06:34:54;;;;;;;5.18;4.78;;;;;;;6.45;100.00;102828.69;6052041;23;20366;-70
2023/12/16 06:37:20;;;;;;;5.25;4.85;;;;;;;5.79;100.00;102701.84;6083117;23;20053;-69
2023/12/16 06:39:46;;;;;;;9.88;5.47;;;;;;;6.45;100.00;102801.75;6040233;23;20031;-69
2023/12/16 06:42:13;;;;;;;5.40;5.13;;;;;;;6.09;100.00;102730.50;6078637;23;20033;-71
2023/12/16 06:44:39;;;;;;;3.92;3.75;;;;;;;6.25;100.00;102768.72;6048193;23;20014;-70
2023/12/16 06:47:06;;;;;;;4.60;4.20;;;;;;;5.19;100.00;102615.88;6080137;23;20026;-69
2023/12/16 06:49:32;;;;;;;4.22;4.03;;;;;;;6.44;100.00;102829.56;6057071;23;20010;-69
2023/12/16 06:51:58;;;;;;;5.30;4.07;;;;;;;5.93;100.00;102740.91;6076920;23;20084;-69
2023/12/16 06:54:25;;;;;;;7.15;5.22;;;;;;;6.15;100.00;102770.50;6046590;23;20731;-69
2023/12/16 06:56:51;;;;;;;5.07;4.78;;;;;;;6.48;100.00;102820.88;6056551;23;20081;-71
2023/12/16 06:59:18;;;;;;;5.88;4.07;;;;;;;6.46;100.00;102819.16;6055733;23;20026;-69
2023/12/16 07:01:44;;;;;;;12.48;4.47;;;;;;;6.02;100.00;102752.25;6070911;23;20033;-69
2023/12/16 07:04:11;;;;;;;5.28;4.97;;;;;;;6.45;100.00;102833.91;6047755;23;20057;-69
2023/12/16 07:06:40;;;;;;;5.13;4.38;;;;;;;6.46;100.00;102843.47;6079019;23;20014;-69
2023/12/16 07:09:06;;;;;;;4.20;4.00;;;;;;;6.48;100.00;102853.91;6051646;23;20030;-70
2023/12/16 07:11:35;;;;;;;4.35;4.05;;;;;;;6.48;100.00;102849.56;6082404;23;20089;-69
2023/12/16 07:14:01;;;;;;;4.07;3.80;;;;;;;6.49;100.00;102853.91;6051913;23;20084;-69
2023/12/16 07:16:30;;;;;;;4.10;3.88;;;;;;;6.42;100.00;102843.50;6073122;23;20070;-70
2023/12/16 07:18:58;;;;;;;4.65;4.22;;;;;;;6.48;100.00;102835.66;6051344;23;20038;-69
2023/12/16 07:21:27;;;;;;;6.00;5.50;;;;;;;6.48;100.00;102838.28;6053632;23;20021;-69
2023/12/16 07:23:54;;;;;;;4.25;4.05;;;;;;;6.45;100.00;102838.25;6041423;23;20418;-70
2023/12/16 07:26:23;;;;;;;13.15;6.22;;;;;;;6.43;100.00;102846.06;6072081;23;20027;-69
2023/12/16 07:28:50;;;;;;;4.60;4.30;;;;;;;6.26;100.00;102820.00;6050061;23;20030;-69
2023/12/16 07:31:16;;;;;;;4.32;4.07;;;;;;;6.25;100.00;102844.34;6059242;23;20037;-70
2023/12/16 07:33:45;;;;;;;15.15;4.78;;;;;;;6.14;100.00;102869.56;6027422;23;20022;-69
2023/12/16 07:36:12;;;;;;;6.57;5.18;;;;;;;6.03;100.00;102861.69;6076105;23;20026;-69
2023/12/16 07:38:39;;;;;;;9.48;5.47;;;;;;;5.99;100.00;102884.31;6048885;23;20015;-68
2023/12/16 07:41:05;;;;;;;9.75;3.60;;;;;;;5.99;100.00;102902.53;6078008;23;20512;-68
2023/12/16 07:43:31;;;;;;;4.00;3.80;;;;;;;5.92;100.00;102898.13;6055711;23;20026;-69
2023/12/16 07:45:58;;;;;;;25.70;4.28;;;;;;;5.90;100.00;102923.31;6076262;23;20571;-68
2023/12/16 07:48:24;;;;;;;5.88;5.50;;;;;;;5.87;100.00;102935.47;6053190;23;20011;-68
2023/12/16 07:50:53;;;;;;;6.28;5.68;;;;;;;5.83;100.00;102950.22;6070870;23;20022;-69
2023/12/16 07:53:21;;;;;;;4.43;4.13;;;;;;;5.86;100.00;102965.88;6055113;23;20521;-68
2023/12/16 07:55:48;;;;;;;4.57;4.30;;;;;;;5.44;100.00;102906.66;6078308;23;20528;-69
2023/12/16 07:58:17;;;;;;;6.40;5.80;;;;;;;5.83;100.00;102978.00;6050285;23;20667;-68
2023/12/16 08:00:44;;;;;;;7.13;4.03;;;;;;;5.80;100.00;102976.28;6087656;23;20083;-68
2023/12/16 08:03:10;;;;;;;4.13;3.83;;;;;;;5.75;100.00;102971.06;6064016;23;20018;-70
2023/12/16 08:05:40;;;;;;;3.80;3.60;;;;;;;5.82;100.00;102984.09;6088162;23;20353;-68
2023/12/16 08:08:06;;;;;;;4.25;4.05;;;;;;;5.71;100.00;102973.63;6054210;23;20066;-68
2023/12/16 08:10:34;;;;;;;4.85;4.20;;;;;;;5.84;100.00;102980.63;6077450;23;20018;-68
2023/12/16 08:13:00;;;;;;;6.60;4.55;;;;;;;5.77;100.00;102968.44;6045320;23;20104;-69
2023/12/16 08:15:27;;;;;;;9.32;4.68;;;;;;;5.73;100.00;102964.97;6072483;23;20026;-69
2023/12/16 08:17:53;;;;;;;4.45;4.18;;;;;;;5.12;100.00;102878.72;6048222;23;20030;-68
2023/12/16 08:20:20;;;;;;;10.65;5.85;;;;;;;4.78;100.00;102852.47;6073648;23;20389;-69
2023/12/16 08:22:46;;;;;;;4.28;4.07;;;;;;;5.73;100.00;103014.47;6024972;23;20463;-68
2023/12/16 08:25:13;;;;;;;3.55;3.45;;;;;;;5.37;100.00;102945.69;6073862;23;20028;-69
2023/12/16 08:27:39;;;;;;;4.25;4.05;;;;;;;5.34;100.00;102950.00;6039059;23;20023;-69
2023/12/16 08:30:07;;;;;;;4.60;4.30;;;;;;;5.43;100.00;102970.84;6066438;23;20455;-69
2023/12/16 08:32:33;;;;;;;9.43;3.85;;;;;;;5.89;100.00;103046.66;6040691;23;20018;-67
2023/12/16 08:35:00;;;;;;;15.68;4.25;;;;;;;5.78;100.00;103030.97;6077611;23;20158;-69
2023/12/16 08:37:26;;;;;;;5.13;3.70;;;;;;;5.94;100.00;103047.56;6045516;23;20021;-69
2023/12/16 08:39:53;;;;;;;4.65;4.35;;;;;;;5.99;100.00;103045.00;6070325;23;20498;-68
2023/12/16 08:42:19;;;;;;;5.47;5.10;;;;;;;5.51;100.00;102956.19;6043606;23;20010;-70
2023/12/16 08:44:46;;;;;;;4.72;4.18;;;;;;;5.46;100.00;102946.59;6066522;23;20017;-69
2023/12/16 08:47:12;;;;;;;4.25;4.00;;;;;;;6.17;100.00;103058.16;6044340;23;20023;-69
2023/12/16 08:49:43;;;;;;;4.10;3.83;;;;;;;6.23;100.00;103048.59;6062237;23;20097;-69
2023/12/16 08:52:10;;;;;;;4.93;4.68;;;;;;;6.34;100.00;103066.03;6007215;23;20034;-69
2023/12/16 08:54:40;;;;;;;4.70;4.22;;;;;;;6.43;100.00;103048.66;6076628;23;20030;-69
2023/12/16 08:57:07;;;;;;;5.43;4.40;;;;;;;6.55;100.00;103049.53;6050146;23;20061;-68
2023/12/16 08:59:34;;;;;;;5.60;4.57;;;;;;;6.41;100.00;102978.22;6067331;23;20078;-68
2023/12/16 09:02:01;;;;;;;5.00;4.68;;;;;;;6.87;100.00;103024.38;6035965;23;20030;-68
2023/12/16 09:04:27;;;;;;;3.53;3.40;;;;;;;7.11;100.00;103026.13;6073649;23;20023;-68
2023/12/16 09:06:54;;;;;;;5.13;4.72;;;;;;;6.80;100.00;102877.38;6053649;23;20091;-68
2023/12/16 09:09:21;;;;;;;4.03;3.83;;;;;;;7.15;100.00;102890.34;6079152;23;20085;-68
2023/12/16 09:11:47;;;;;;;5.18;4.88;;;;;;;7.11;100.00;102862.50;6052166;23;20018;-68
2023/12/16 09:14:14;;;;;;;5.47;5.18;;;;;;;7.19;100.00;102857.25;6077921;23;20319;-69
2023/12/16 09:16:41;;;;;;;4.72;4.47;;;;;;;7.29;100.00;102855.47;6049040;23;20084;-68
2023/12/16 09:19:08;;;;;;;4.07;3.88;;;;;;;7.39;100.00;102863.25;6071518;23;20467;-69
2023/12/16 09:21:35;;;;;;;9.50;4.32;;;;;;;7.39;100.00;102852.81;6046027;23;20517;-69
2023/12/16 09:24:02;;;;;;;4.55;4.35;;;;;;;7.43;100.00;102869.34;6081303;23;20025;-69
2023/12/16 09:26:28;;;;;;;4.32;4.13;;;;;;;7.23;100.00;102839.84;6048438;23;20041;-68
2023/12/16 09:28:54;;;;;;;4.00;3.78;;;;;;;7.53;100.00;102881.50;6081049;23;20070;-67
2023/12/16 09:31:21;;;;;;;3.75;3.63;;;;;;;7.10;100.00;102792.88;6054085;23;20042;-68
2023/12/16 09:33:47;;;;;;;4.45;4.20;;;;;;;7.58;100.00;102871.03;6075632;23;20026;-69
2023/12/16 09:36:14;;;;;;;5.38;5.07;;;;;;;7.62;100.00;102870.16;6050464;23;20699;-68
2023/12/16 09:38:41;;;;;;;4.95;4.57;;;;;;;7.42;100.00;102820.59;6073098;23;20086;-68
2023/12/16 09:41:24;;;;;;;4.47;4.18;;;;;;;7.64;100.00;102859.66;6045525;23;20026;-68
2023/12/16 09:43:53;;;;;;;5.10;4.55;;;;;;;7.61;100.00;102867.53;6078044;23;20581;-68
2023/12/16 09:46:22;;;;;;;7.03;5.78;;;;;;;7.66;100.00;102876.22;6047263;23;20094;-70
2023/12/16 09:48:50;;;;;;;4.85;4.22;;;;;;;7.77;100.00;102877.03;6080187;23;20097;-69
2023/12/16 09:51:17;;;;;;;4.32;4.03;;;;;;;7.83;100.00;102834.31;6047705;23;20031;-68
2023/12/16 09:53:43;;;;;;;4.88;4.47;;;;;;;7.69;100.00;102803.91;6082000;23;20030;-68
2023/12/16 09:56:13;;;;;;;5.00;4.70;;;;;;;7.56;100.00;102743.00;6026418;23;20046;-69
2023/12/16 09:58:43;;;;;;;6.60;4.18;;;;;;;7.62;100.00;102708.13;6075327;23;20018;-68
2023/12/16 10:01:10;;;;;;;6.88;6.25;;;;;;;8.14;100.00;102790.53;6052258;23;20097;-69
2023/12/16 10:03:41;;;;;;;10.07;4.72;;;;;;;8.27;100.00;102806.97;6077925;23;20014;-69
2023/12/16 10:06:09;;;;;;;4.63;4.32;;;;;;;7.27;100.00;102623.03;6051250;23;20032;-68
2023/12/16 10:08:39;;;;;;;5.82;4.25;;;;;;;8.28;100.00;102786.03;6078906;23;20049;-68
2023/12/16 10:11:06;;;;;;;4.55;4.35;;;;;;;7.84;100.00;102702.72;6052676;23;20053;-69
2023/12/16 10:13:57;;;;;;;5.20;4.90;;;;;;;8.32;100.00;102784.25;6075188;23;20600;-68
2023/12/16 10:16:26;;;;;;;5.22;4.93;;;;;;;7.93;100.00;102750.56;6043134;23;20716;-68
2023/12/16 10:18:54;;;;;;;5.25;4.63;;;;;;;8.39;100.00;102812.09;6070575;23;20034;-70
2023/12/16 10:21:23;;;;;;;4.38;4.18;;;;;;;8.27;100.00;102791.25;6048482;23;20006;-68
2023/12/16 10:23:52;;;;;;;8.20;5.05;;;;;;;7.72;100.00;102701.97;6082204;23;20391;-68
2023/12/16 10:26:18;;;;;;;6.85;6.35;;;;;;;8.59;100.00;102810.16;6046821;23;21173;-70
2023/12/16 10:28:46;;;;;;;4.53;4.22;;;;;;;8.64;100.00;102791.81;6057855;23;20041;-70
2023/12/16 10:31:15;;;;;;;13.73;4.50;;;;;;;8.68;99.61;102759.50;6052384;23;20034;-68
2023/12/16 10:33:42;;;;;;;4.13;3.92;;;;;;;8.72;99.88;102776.91;6051881;23;20020;-70
2023/12/16 10:36:09;;;;;;;5.78;5.38;;;;;;;8.74;99.68;102793.47;6047558;23;20535;-70
2023/12/16 10:38:36;;;;;;;4.70;4.40;;;;;;;8.88;100.00;102798.53;6070200;23;20030;-68
2023/12/16 10:41:03;;;;;;;7.30;4.65;;;;;;;8.75;100.00;102789.09;6050303;23;20030;-68
2023/12/16 10:43:29;;;;;;;6.20;3.90;;;;;;;8.93;100.00;102809.81;6081078;23;20535;-68
2023/12/16 10:46:02;;;;;;;5.18;4.88;;;;;;;9.22;100.00;102840.06;6025387;23;20544;-68
2023/12/16 10:48:30;;;;;;;;;;;;;;;9.37;98.85;102810.16;6080389;23;20039;-69
2023/12/16 10:51:00;;;;;;;7.45;5.65;;;;;;;9.13;98.36;102762.44;6049690;23;19940;-69
2023/12/16 10:53:40;;;;;;;4.50;4.30;;;;;;;9.08;96.64;102679.56;6079983;23;20080;-68
2023/12/16 10:56:28;;;;;;;5.45;4.72;;;;;;;9.55;96.73;102757.47;6026342;23;20026;-69
2023/12/16 10:59:04;;;;;;;5.07;4.47;;;;;;;9.71;94.71;102720.56;6079396;23;20053;-68
2023/12/16 11:01:41;;;;;;;5.72;4.40;;;;;;;9.90;93.80;102739.47;6045029;23;20007;-70
2023/12/16 11:04:14;;;;;;;5.20;4.97;;;;;;;9.14;91.22;102520.56;6077414;23;20025;-68
2023/12/16 11:06:51;;;;;;;4.65;4.28;;;;;;;9.97;92.07;102684.25;6055082;23;20026;-67
2023/12/16 11:09:18;;;;;;;4.40;4.10;;;;;;;9.86;91.15;102632.88;6061435;23;20311;-68
2023/12/16 11:11:46;;;;;;;7.90;4.50;;;;;;;9.99;90.92;102648.38;6050684;23;20026;-68
2023/12/16 11:14:14;;;;;;;6.47;5.90;;;;;;;9.96;91.63;102684.28;6079877;23;20113;-68
2023/12/16 11:16:55;;;;;;;4.78;4.55;;;;;;;9.93;91.01;102647.63;6046920;23;20020;-68
2023/12/16 11:19:25;;;;;;;4.45;4.25;;;;;;;9.08;89.95;102472.66;6083452;23;20025;-68
2023/12/16 11:21:52;;;;;;;5.40;4.90;;;;;;;10.01;90.49;102630.00;6046235;23;20628;-67
2023/12/16 11:24:19;;;;;;;5.32;5.03;;;;;;;10.01;90.33;102643.09;6079926;23;20036;-68